createdAt,value
2017-09-18T00:00:14.636Z,100.0
2017-09-18T00:01:16.249Z,99.9
2017-09-18T00:02:17.853Z,100.0
2017-09-18T00:03:19.300Z,99.8
2017-09-18T00:04:20.913Z,100.0
2017-09-18T00:05:22.499Z,100.0
2017-09-18T00:06:24.124Z,100.0
2017-09-18T00:07:25.655Z,100.0
2017-09-18T00:08:27.148Z,100.0
2017-09-18T00:09:28.744Z,100.0
2017-09-18T00:10:30.287Z,99.9
2017-09-18T00:11:31.876Z,99.8
2017-09-18T00:12:33.478Z,100.0
2017-09-18T00:13:35.085Z,99.5
2017-09-18T00:14:36.669Z,99.2
2017-09-18T00:15:38.413Z,100.0
2017-09-18T00:16:39.972Z,100.0
2017-09-18T00:17:41.510Z,99.6
2017-09-18T00:18:43.087Z,100.0
2017-09-18T00:19:44.648Z,100.0
2017-09-18T00:20:46.133Z,99.5
2017-09-18T00:21:47.694Z,100.0
2017-09-18T00:22:49.212Z,99.5
2017-09-18T00:23:50.723Z,100.0
2017-09-18T00:24:52.214Z,99.6
2017-09-18T00:25:53.753Z,99.5
2017-09-18T00:26:55.321Z,100.0
2017-09-18T00:27:56.832Z,100.0
2017-09-18T00:28:58.390Z,99.5
2017-09-18T00:29:59.976Z,99.3
2017-09-18T00:31:01.522Z,99.6
2017-09-18T00:32:03.053Z,100.0
2017-09-18T00:33:04.567Z,99.9
2017-09-18T00:34:06.075Z,99.8
2017-09-18T00:35:07.576Z,100.0
2017-09-18T00:36:09.119Z,100.0
2017-09-18T00:37:10.674Z,100.0
2017-09-18T00:38:12.265Z,100.0
2017-09-18T00:39:13.757Z,99.7
2017-09-18T00:40:15.284Z,100.0
2017-09-18T00:41:16.965Z,100.0
2017-09-18T00:42:18.630Z,100.0
2017-09-18T00:43:20.168Z,100.0
2017-09-18T00:44:21.673Z,100.0
2017-09-18T00:45:23.296Z,100.0
2017-09-18T00:46:24.839Z,100.0
2017-09-18T00:47:26.367Z,99.5
2017-09-18T00:48:27.862Z,99.5
2017-09-18T00:49:29.444Z,99.6
2017-09-18T00:50:30.942Z,99.4
2017-09-18T00:51:32.492Z,99.4
2017-09-18T00:52:34.037Z,99.5
2017-09-18T00:53:35.596Z,99.5
2017-09-18T00:54:37.186Z,99.1
2017-09-18T00:55:38.740Z,99.5
2017-09-18T00:56:40.268Z,99.5
2017-09-18T00:57:41.780Z,99.8
2017-09-18T00:58:43.326Z,99.9
2017-09-18T00:59:44.845Z,99.9
2017-09-18T01:00:46.375Z,99.6
2017-09-18T01:01:47.907Z,99.4
2017-09-18T01:02:49.407Z,100.0
2017-09-18T01:03:51.067Z,99.9
2017-09-18T01:04:52.594Z,100.0
2017-09-18T01:05:54.125Z,100.0
2017-09-18T01:06:55.735Z,99.3
2017-09-18T01:07:57.263Z,98.6
2017-09-18T01:08:58.900Z,99.5
2017-09-18T01:10:00.452Z,99.5
2017-09-18T01:11:02.055Z,99.5
2017-09-18T01:12:03.558Z,99.9
2017-09-18T01:13:05.041Z,99.4
2017-09-18T01:14:06.570Z,99.9
2017-09-18T01:15:08.165Z,100.0
2017-09-18T01:16:09.747Z,99.8
2017-09-18T01:17:11.273Z,99.9
2017-09-18T01:18:12.827Z,100.0
2017-09-18T01:19:14.359Z,99.4
2017-09-18T01:20:15.852Z,99.3
2017-09-18T01:21:17.403Z,99.9
2017-09-18T01:22:18.916Z,100.0
2017-09-18T01:23:20.444Z,100.0
2017-09-18T01:24:21.933Z,100.0
2017-09-18T01:25:23.510Z,100.0
2017-09-18T01:26:25.094Z,100.0
2017-09-18T01:27:26.579Z,100.0
2017-09-18T01:28:28.114Z,100.0
2017-09-18T01:29:29.633Z,100.0
2017-09-18T01:30:31.116Z,100.0
2017-09-18T01:31:32.629Z,100.0
2017-09-18T01:32:34.204Z,100.0
2017-09-18T01:33:35.772Z,100.0
2017-09-18T01:34:37.363Z,100.0
2017-09-18T01:35:38.860Z,99.8
2017-09-18T01:36:40.347Z,99.6
2017-09-18T01:37:41.877Z,100.0
2017-09-18T01:38:43.426Z,100.0
2017-09-18T01:39:45.002Z,100.0
2017-09-18T01:40:46.533Z,100.0
2017-09-18T01:41:48.158Z,100.0
2017-09-18T01:42:49.659Z,100.0
2017-09-18T01:43:51.198Z,100.0
2017-09-18T01:44:52.710Z,100.0
2017-09-18T01:45:54.189Z,100.0
2017-09-18T01:46:55.756Z,100.0
2017-09-18T01:47:57.279Z,100.0
2017-09-18T01:48:58.793Z,100.0
2017-09-18T01:50:00.326Z,100.0
2017-09-18T01:51:01.868Z,100.0
2017-09-18T01:52:03.404Z,100.0
2017-09-18T01:53:04.941Z,100.0
2017-09-18T01:54:06.520Z,100.0
2017-09-18T01:55:08.113Z,100.0
2017-09-18T01:56:09.607Z,100.0
2017-09-18T01:57:11.226Z,100.0
2017-09-18T01:58:12.739Z,100.0
2017-09-18T01:59:14.249Z,100.0
2017-09-18T02:00:15.794Z,100.0
2017-09-18T02:01:17.313Z,100.0
2017-09-18T02:02:18.818Z,100.0
2017-09-18T02:03:20.385Z,100.0
2017-09-18T02:04:21.936Z,100.0
2017-09-18T02:05:23.451Z,100.0
2017-09-18T02:06:25.012Z,100.0
2017-09-18T02:07:26.554Z,100.0
2017-09-18T02:08:28.021Z,100.0
2017-09-18T02:09:29.610Z,100.0
2017-09-18T02:10:31.200Z,100.0
2017-09-18T02:11:32.666Z,100.0
2017-09-18T02:12:34.186Z,100.0
2017-09-18T02:13:35.685Z,100.0
2017-09-18T02:14:37.214Z,100.0
2017-09-18T02:15:38.804Z,100.0
2017-09-18T02:16:40.318Z,100.0
2017-09-18T02:17:41.875Z,100.0
2017-09-18T02:18:43.432Z,100.0
2017-09-18T02:19:44.947Z,100.0
2017-09-18T02:20:46.444Z,100.0
2017-09-18T02:21:47.965Z,100.0
2017-09-18T02:22:49.502Z,100.0
2017-09-18T02:23:51.025Z,100.0
2017-09-18T02:24:52.577Z,100.0
2017-09-18T02:25:54.284Z,100.0
2017-09-18T02:26:55.942Z,100.0
2017-09-18T02:27:57.424Z,100.0
2017-09-18T02:28:58.960Z,100.0
2017-09-18T02:30:00.466Z,100.0
2017-09-18T02:31:01.971Z,100.0
2017-09-18T02:32:03.505Z,100.0
2017-09-18T02:33:05.017Z,100.0
2017-09-18T02:34:06.588Z,100.0
2017-09-18T02:35:08.111Z,100.0
2017-09-18T02:36:09.648Z,100.0
2017-09-18T02:37:11.177Z,100.0
2017-09-18T02:38:12.675Z,100.0
2017-09-18T02:39:14.185Z,100.0
2017-09-18T02:40:15.713Z,100.0
2017-09-18T02:41:17.220Z,100.0
2017-09-18T02:42:18.735Z,100.0
2017-09-18T02:43:20.246Z,100.0
2017-09-18T02:44:21.846Z,100.0
2017-09-18T02:45:23.331Z,100.0
2017-09-18T02:46:24.920Z,100.0
2017-09-18T02:47:26.481Z,100.0
2017-09-18T02:48:28.023Z,100.0
2017-09-18T02:49:29.544Z,100.0
2017-09-18T02:50:31.154Z,100.0
2017-09-18T02:51:32.725Z,100.0
2017-09-18T02:52:34.234Z,100.0
2017-09-18T02:53:35.773Z,100.0
2017-09-18T02:54:37.270Z,100.0
2017-09-18T02:55:38.794Z,100.0
2017-09-18T02:56:40.301Z,100.0
2017-09-18T02:57:41.824Z,100.0
2017-09-18T02:58:43.350Z,100.0
2017-09-18T02:59:44.856Z,100.0
2017-09-18T03:00:46.327Z,100.0
2017-09-18T03:01:47.823Z,100.0
2017-09-18T03:02:49.360Z,100.0
2017-09-18T03:03:50.858Z,100.0
2017-09-18T03:04:52.435Z,100.0
2017-09-18T03:05:54.056Z,100.0
2017-09-18T03:06:55.523Z,100.0
2017-09-18T03:07:57.032Z,100.0
2017-09-18T03:08:58.535Z,100.0
2017-09-18T03:10:00.051Z,100.0
2017-09-18T03:11:01.594Z,100.0
2017-09-18T03:12:03.187Z,100.0
2017-09-18T03:13:04.685Z,100.0
2017-09-18T03:14:06.207Z,100.0
2017-09-18T03:15:07.755Z,100.0
2017-09-18T03:16:09.309Z,100.0
2017-09-18T03:17:10.853Z,100.0
2017-09-18T03:18:12.397Z,100.0
2017-09-18T03:19:13.904Z,100.0
2017-09-18T03:20:15.387Z,100.0
2017-09-18T03:21:16.940Z,100.0
2017-09-18T03:22:18.473Z,100.0
2017-09-18T03:23:19.973Z,100.0
2017-09-18T03:24:21.486Z,100.0
2017-09-18T03:25:23.019Z,100.0
2017-09-18T03:26:24.550Z,100.0
2017-09-18T03:27:26.034Z,100.0
2017-09-18T03:28:27.579Z,100.0
2017-09-18T03:29:29.074Z,100.0
2017-09-18T03:30:30.573Z,100.0
2017-09-18T03:31:32.149Z,100.0
2017-09-18T03:32:33.609Z,100.0
2017-09-18T03:33:35.119Z,100.0
2017-09-18T03:34:36.680Z,100.0
2017-09-18T03:35:38.238Z,100.0
2017-09-18T03:36:39.764Z,100.0
2017-09-18T03:37:41.284Z,100.0
2017-09-18T03:38:42.851Z,100.0
2017-09-18T03:39:44.404Z,100.0
2017-09-18T03:40:45.910Z,100.0
2017-09-18T03:41:47.440Z,100.0
2017-09-18T03:42:48.972Z,100.0
2017-09-18T03:43:50.565Z,100.0
2017-09-18T03:44:52.211Z,100.0
2017-09-18T03:45:53.727Z,100.0
2017-09-18T03:46:55.302Z,100.0
2017-09-18T03:47:56.819Z,100.0
2017-09-18T03:48:58.345Z,100.0
2017-09-18T03:50:00.791Z,100.0
2017-09-18T03:51:02.328Z,100.0
2017-09-18T03:52:03.825Z,100.0
2017-09-18T03:53:05.404Z,100.0
2017-09-18T03:54:06.900Z,100.0
2017-09-18T03:55:08.439Z,100.0
2017-09-18T03:56:09.944Z,100.0
2017-09-18T03:57:11.463Z,100.0
2017-09-18T03:58:13.059Z,100.0
2017-09-18T03:59:14.605Z,100.0
2017-09-18T04:00:16.217Z,100.0
2017-09-18T04:01:17.782Z,100.0
2017-09-18T04:02:19.390Z,100.0
2017-09-18T04:03:20.891Z,100.0
2017-09-18T04:04:22.486Z,100.0
2017-09-18T04:05:24.023Z,100.0
2017-09-18T04:06:25.586Z,100.0
2017-09-18T04:07:27.202Z,100.0
2017-09-18T04:08:28.700Z,100.0
2017-09-18T04:09:30.248Z,100.0
2017-09-18T04:10:31.782Z,100.0
2017-09-18T04:11:33.352Z,100.0
2017-09-18T04:12:34.825Z,100.0
2017-09-18T04:13:36.357Z,100.0
2017-09-18T04:14:37.908Z,100.0
2017-09-18T04:15:39.439Z,100.0
2017-09-18T04:16:40.995Z,100.0
2017-09-18T04:17:42.528Z,100.0
2017-09-18T04:18:44.089Z,100.0
2017-09-18T04:19:45.569Z,100.0
2017-09-18T04:20:47.184Z,100.0
2017-09-18T04:21:48.730Z,100.0
2017-09-18T04:22:50.254Z,100.0
2017-09-18T04:23:51.829Z,100.0
2017-09-18T04:24:53.356Z,100.0
2017-09-18T04:25:54.854Z,100.0
2017-09-18T04:26:56.393Z,100.0
2017-09-18T04:27:58.026Z,100.0
2017-09-18T04:28:59.557Z,100.0
2017-09-18T04:30:01.192Z,100.0
2017-09-18T04:31:02.718Z,100.0
2017-09-18T04:32:04.253Z,100.0
2017-09-18T04:33:05.806Z,100.0
2017-09-18T04:34:07.379Z,100.0
2017-09-18T04:35:09.016Z,100.0
2017-09-18T04:36:10.549Z,100.0
2017-09-18T04:37:12.118Z,100.0
2017-09-18T04:38:13.673Z,100.0
2017-09-18T04:39:15.257Z,100.0
2017-09-18T04:40:17.001Z,100.0
2017-09-18T04:41:18.492Z,100.0
2017-09-18T04:42:19.993Z,100.0
2017-09-18T04:43:21.519Z,100.0
2017-09-18T04:44:23.080Z,100.0
2017-09-18T04:45:24.643Z,100.0
2017-09-18T04:46:26.160Z,100.0
2017-09-18T04:47:27.708Z,100.0
2017-09-18T04:48:29.267Z,100.0
2017-09-18T04:49:30.765Z,100.0
2017-09-18T04:50:32.285Z,100.0
2017-09-18T04:51:33.866Z,100.0
2017-09-18T04:52:35.469Z,100.0
2017-09-18T04:53:36.963Z,100.0
2017-09-18T04:54:38.494Z,100.0
2017-09-18T04:55:39.997Z,100.0
2017-09-18T04:56:41.539Z,100.0
2017-09-18T04:57:43.086Z,100.0
2017-09-18T04:58:44.675Z,100.0
2017-09-18T04:59:46.237Z,100.0
2017-09-18T05:00:47.849Z,100.0
2017-09-18T05:01:49.314Z,100.0
2017-09-18T05:02:50.890Z,100.0
2017-09-18T05:03:52.378Z,100.0
2017-09-18T05:04:53.952Z,100.0
2017-09-18T05:05:55.476Z,100.0
2017-09-18T05:06:57.046Z,100.0
2017-09-18T05:07:58.605Z,100.0
2017-09-18T05:09:00.146Z,100.0
2017-09-18T05:10:01.670Z,100.0
2017-09-18T05:11:03.216Z,100.0
2017-09-18T05:12:04.734Z,100.0
2017-09-18T05:13:06.273Z,100.0
2017-09-18T05:14:08.028Z,100.0
2017-09-18T05:15:09.517Z,100.0
2017-09-18T05:16:11.008Z,100.0
2017-09-18T05:17:12.555Z,100.0
2017-09-18T05:18:14.110Z,100.0
2017-09-18T05:19:15.646Z,100.0
2017-09-18T05:20:17.216Z,100.0
2017-09-18T05:21:18.764Z,100.0
2017-09-18T05:22:20.335Z,100.0
2017-09-18T05:23:22.826Z,100.0
2017-09-18T05:24:24.325Z,100.0
2017-09-18T05:25:25.844Z,100.0
2017-09-18T05:26:27.460Z,100.0
2017-09-18T05:27:28.961Z,100.0
2017-09-18T05:28:30.530Z,100.0
2017-09-18T05:29:32.035Z,100.0
2017-09-18T05:30:33.555Z,100.0
2017-09-18T05:31:35.105Z,100.0
2017-09-18T05:32:36.733Z,100.0
2017-09-18T05:33:38.262Z,100.0
2017-09-18T05:34:39.770Z,100.0
2017-09-18T05:35:41.337Z,100.0
2017-09-18T05:36:42.848Z,100.0
2017-09-18T05:37:44.421Z,100.0
2017-09-18T05:38:45.951Z,100.0
2017-09-18T05:39:47.568Z,100.0
2017-09-18T05:40:49.179Z,100.0
2017-09-18T05:41:50.720Z,100.0
2017-09-18T05:42:52.316Z,100.0
2017-09-18T05:43:54.471Z,100.0
2017-09-18T05:44:56.060Z,100.0
2017-09-18T05:45:57.632Z,100.0
2017-09-18T05:46:59.178Z,100.0
2017-09-18T05:48:00.740Z,100.0
2017-09-18T05:49:02.239Z,100.0
2017-09-18T05:50:03.780Z,100.0
2017-09-18T05:51:05.268Z,100.0
2017-09-18T05:52:07.331Z,100.0
2017-09-18T05:53:08.869Z,100.0
2017-09-18T05:54:10.321Z,100.0
2017-09-18T05:55:11.847Z,100.0
2017-09-18T05:56:13.400Z,100.0
2017-09-18T05:57:14.997Z,100.0
2017-09-18T05:58:16.647Z,100.0
2017-09-18T05:59:18.157Z,100.0
2017-09-18T06:00:19.729Z,100.0
2017-09-18T06:01:21.364Z,100.0
2017-09-18T06:02:22.955Z,100.0
2017-09-18T06:03:24.542Z,100.0
2017-09-18T06:04:26.069Z,100.0
2017-09-18T06:05:27.575Z,100.0
2017-09-18T06:06:29.180Z,100.0
2017-09-18T06:07:30.673Z,100.0
2017-09-18T06:08:32.350Z,99.5
2017-09-18T06:09:34.064Z,99.4
2017-09-18T06:10:35.571Z,99.4
2017-09-18T06:11:37.167Z,98.7
2017-09-18T06:12:38.818Z,98.0
2017-09-18T06:13:40.333Z,98.2
2017-09-18T06:14:41.898Z,97.0
2017-09-18T06:15:43.771Z,97.5
2017-09-18T06:16:45.570Z,97.5
2017-09-18T06:17:47.247Z,98.1
2017-09-18T06:18:48.820Z,97.6
2017-09-18T06:19:50.558Z,97.3
2017-09-18T06:20:52.187Z,97.5
2017-09-18T06:21:53.785Z,97.7
2017-09-18T06:22:55.536Z,97.1
2017-09-18T06:23:57.413Z,96.8
2017-09-18T06:24:59.144Z,95.8
2017-09-18T06:26:00.895Z,95.9
2017-09-18T06:27:02.613Z,96.6
2017-09-18T06:28:04.382Z,97.2
2017-09-18T06:29:06.149Z,97.2
2017-09-18T06:30:07.927Z,97.1
2017-09-18T06:31:09.662Z,97.3
2017-09-18T06:32:11.493Z,98.1
2017-09-18T06:33:13.165Z,98.2
2017-09-18T06:34:14.920Z,97.9
2017-09-18T06:35:16.713Z,97.4
2017-09-18T06:36:18.438Z,97.5
2017-09-18T06:37:20.205Z,98.0
2017-09-18T06:38:22.036Z,97.6
2017-09-18T06:39:23.826Z,98.0
2017-09-18T06:40:25.672Z,97.3
2017-09-18T06:41:27.491Z,96.4
2017-09-18T06:42:29.244Z,96.6
2017-09-18T06:43:31.046Z,97.0
2017-09-18T06:44:32.734Z,96.5
2017-09-18T06:45:34.501Z,96.3
2017-09-18T06:46:36.267Z,96.0
2017-09-18T06:47:38.181Z,95.3
2017-09-18T06:48:39.938Z,95.4
2017-09-18T06:49:41.703Z,95.6
2017-09-18T06:50:43.352Z,95.6
2017-09-18T06:51:45.133Z,96.2
2017-09-18T06:52:46.850Z,96.2
2017-09-18T06:53:48.478Z,96.0
2017-09-18T06:54:50.331Z,96.8
2017-09-18T06:55:52.224Z,96.5
2017-09-18T06:56:53.623Z,96.0
2017-09-18T06:57:55.252Z,96.1
2017-09-18T06:58:56.928Z,95.7
2017-09-18T06:59:58.751Z,94.9
2017-09-18T07:01:00.475Z,94.8
2017-09-18T07:02:02.112Z,93.8
2017-09-18T07:03:03.945Z,93.9
2017-09-18T07:04:05.706Z,94.7
2017-09-18T07:05:07.517Z,94.4
2017-09-18T07:06:09.166Z,93.9
2017-09-18T07:07:10.960Z,94.2
2017-09-18T07:08:12.735Z,93.5
2017-09-18T07:09:14.541Z,93.4
2017-09-18T07:10:16.383Z,93.5
2017-09-18T07:11:18.120Z,93.4
2017-09-18T07:12:19.850Z,92.5
2017-09-18T07:13:21.599Z,92.5
2017-09-18T07:14:23.288Z,92.5
2017-09-18T07:15:25.026Z,92.4
2017-09-18T07:16:26.723Z,92.0
2017-09-18T07:17:28.452Z,92.0
2017-09-18T07:18:30.093Z,91.7
2017-09-18T07:19:31.836Z,91.7
2017-09-18T07:20:33.464Z,90.8
2017-09-18T07:21:35.202Z,90.2
2017-09-18T07:22:36.863Z,90.3
2017-09-18T07:23:38.553Z,90.0
2017-09-18T07:24:40.234Z,89.1
2017-09-18T07:25:41.957Z,89.0
2017-09-18T07:26:43.672Z,89.3
2017-09-18T07:27:45.551Z,89.5
2017-09-18T07:28:47.298Z,89.5
2017-09-18T07:29:48.944Z,89.0
2017-09-18T07:30:50.637Z,88.5
2017-09-18T07:31:52.362Z,88.1
2017-09-18T07:32:54.041Z,88.0
2017-09-18T07:33:55.788Z,87.5
2017-09-18T07:34:57.578Z,87.1
2017-09-18T07:35:59.348Z,87.5
2017-09-18T07:37:00.996Z,87.0
2017-09-18T07:38:02.767Z,87.1
2017-09-18T07:39:04.577Z,87.1
2017-09-18T07:40:06.404Z,87.8
2017-09-18T07:41:08.191Z,88.1
2017-09-18T07:42:09.962Z,88.0
2017-09-18T07:43:11.699Z,87.2
2017-09-18T07:44:13.439Z,88.1
2017-09-18T07:45:15.264Z,88.1
2017-09-18T07:46:16.975Z,87.4
2017-09-18T07:47:18.759Z,87.1
2017-09-18T07:48:20.572Z,87.6
2017-09-18T07:49:22.242Z,87.7
2017-09-18T07:50:23.860Z,87.1
2017-09-18T07:51:25.550Z,86.5
2017-09-18T07:52:27.390Z,86.5
2017-09-18T07:53:29.186Z,86.0
2017-09-18T07:54:31.059Z,85.4
2017-09-18T07:55:32.877Z,85.4
2017-09-18T07:56:34.562Z,84.9
2017-09-18T07:57:36.395Z,84.6
2017-09-18T07:58:38.126Z,84.6
2017-09-18T07:59:39.950Z,84.6
2017-09-18T08:00:41.715Z,84.6
2017-09-18T08:01:43.503Z,84.7
2017-09-18T08:02:45.200Z,84.0
2017-09-18T08:03:46.993Z,84.5
2017-09-18T08:04:48.690Z,84.4
2017-09-18T08:05:50.439Z,83.8
2017-09-18T08:06:52.216Z,83.9
2017-09-18T08:07:54.114Z,83.7
2017-09-18T08:08:55.845Z,83.6
2017-09-18T08:09:57.556Z,84.0
2017-09-18T08:10:59.463Z,83.5
2017-09-18T08:12:01.215Z,82.6
2017-09-18T08:13:02.904Z,82.1
2017-09-18T08:14:04.597Z,82.1
2017-09-18T08:15:06.536Z,82.1
2017-09-18T08:16:08.152Z,82.1
2017-09-18T08:17:09.885Z,81.1
2017-09-18T08:18:11.512Z,81.6
2017-09-18T08:19:13.307Z,81.0
2017-09-18T08:20:14.907Z,80.9
2017-09-18T08:21:16.753Z,80.7
2017-09-18T08:22:18.359Z,79.7
2017-09-18T08:23:20.313Z,79.6
2017-09-18T08:24:22.311Z,79.3
2017-09-18T08:25:24.893Z,78.9
2017-09-18T08:26:26.882Z,78.1
2017-09-18T08:27:28.484Z,78.4
2017-09-18T08:28:30.245Z,78.6
2017-09-18T08:29:32.037Z,77.5
2017-09-18T08:30:33.727Z,77.4
2017-09-18T08:31:35.573Z,78.2
2017-09-18T08:32:37.315Z,79.3
2017-09-18T08:33:39.089Z,79.3
2017-09-18T08:34:40.863Z,79.4
2017-09-18T08:35:42.782Z,78.6
2017-09-18T08:36:44.726Z,78.6
2017-09-18T08:37:46.434Z,77.7
2017-09-18T08:38:48.630Z,77.7
2017-09-18T08:39:51.035Z,77.1
2017-09-18T08:40:52.848Z,76.9
2017-09-18T08:41:54.498Z,77.1
2017-09-18T08:42:56.337Z,77.1
2017-09-18T08:43:58.234Z,76.3
2017-09-18T08:45:00.028Z,75.1
2017-09-18T08:46:01.704Z,74.4
2017-09-18T08:47:03.584Z,74.4
2017-09-18T08:48:05.406Z,74.7
2017-09-18T08:49:07.446Z,73.9
2017-09-18T08:50:09.480Z,72.8
2017-09-18T08:51:11.285Z,72.8
2017-09-18T08:52:13.355Z,72.0
2017-09-18T08:53:15.750Z,71.1
2017-09-18T08:54:17.427Z,70.8
2017-09-18T08:55:19.674Z,69.7
2017-09-18T08:56:21.547Z,69.1
2017-09-18T08:57:23.351Z,68.9
2017-09-18T08:58:25.373Z,68.9
2017-09-18T08:59:27.018Z,68.4
2017-09-18T09:00:29.459Z,68.6
2017-09-18T09:01:33.053Z,68.4
2017-09-18T09:02:35.285Z,67.2
2017-09-18T09:03:37.087Z,66.2
2017-09-18T09:04:38.834Z,65.6
2017-09-18T09:05:40.526Z,64.6
2017-09-18T09:06:42.404Z,64.8
2017-09-18T09:07:44.298Z,63.5
2017-09-18T09:08:46.009Z,63.4
2017-09-18T09:09:47.734Z,63.2
2017-09-18T09:10:49.469Z,62.0
2017-09-18T09:11:51.182Z,60.6
2017-09-18T09:12:52.930Z,60.2
2017-09-18T09:13:54.669Z,60.2
2017-09-18T09:14:56.781Z,61.3
2017-09-18T09:15:58.430Z,61.7
2017-09-18T09:17:00.161Z,62.0
2017-09-18T09:18:03.936Z,62.0
2017-09-18T09:19:05.602Z,61.8
2017-09-18T09:20:07.384Z,61.0
2017-09-18T09:21:09.255Z,60.0
2017-09-18T09:22:10.894Z,58.3
2017-09-18T09:23:12.625Z,58.0
2017-09-18T09:24:14.820Z,57.4
2017-09-18T09:25:16.628Z,55.8
2017-09-18T09:26:18.511Z,55.8
2017-09-18T09:27:20.227Z,55.4
2017-09-18T09:28:22.727Z,55.7
2017-09-18T09:29:24.572Z,55.6
2017-09-18T09:30:26.474Z,54.1
2017-09-18T09:31:28.140Z,53.7
2017-09-18T09:32:29.787Z,53.9
2017-09-18T09:33:31.424Z,53.9
2017-09-18T09:34:33.266Z,53.7
2017-09-18T09:35:35.023Z,52.8
2017-09-18T09:36:36.708Z,52.5
2017-09-18T09:37:38.467Z,51.7
2017-09-18T09:38:40.382Z,52.3
2017-09-18T09:39:42.149Z,52.7
2017-09-18T09:40:43.921Z,54.7
2017-09-18T09:41:46.239Z,54.8
2017-09-18T09:42:48.085Z,54.1
2017-09-18T09:43:49.934Z,53.1
2017-09-18T09:44:51.686Z,53.4
2017-09-18T09:45:53.475Z,53.8
2017-09-18T09:46:56.748Z,52.3
2017-09-18T09:47:58.765Z,52.5
2017-09-18T09:49:00.556Z,53.6
2017-09-18T09:50:02.424Z,53.4
2017-09-18T09:51:04.362Z,52.9
2017-09-18T09:52:05.971Z,52.8
2017-09-18T09:53:07.632Z,53.5
2017-09-18T09:54:09.478Z,54.3
2017-09-18T09:55:13.282Z,55.2
2017-09-18T09:56:14.818Z,56.1
2017-09-18T09:57:16.548Z,55.6
2017-09-18T09:58:23.603Z,58.2
2017-09-18T09:59:26.193Z,59.0
2017-09-18T10:00:27.889Z,59.6
2017-09-18T10:01:31.188Z,59.7
2017-09-18T10:02:33.463Z,58.6
2017-09-18T10:03:35.346Z,59.7
2017-09-18T10:04:37.791Z,60.2
2017-09-18T10:05:39.649Z,61.2
2017-09-18T10:06:41.955Z,61.7
2017-09-18T10:07:44.585Z,61.5
2017-09-18T10:08:46.342Z,59.3
2017-09-18T10:09:48.072Z,57.3
2017-09-18T10:10:49.913Z,55.9
2017-09-18T10:11:57.223Z,54.3
2017-09-18T10:12:59.001Z,52.8
2017-09-18T10:14:03.369Z,50.2
2017-09-18T10:15:05.187Z,49.4
2017-09-18T10:16:09.845Z,48.9
2017-09-18T10:17:12.202Z,47.2
2017-09-18T10:18:18.041Z,46.5
2017-09-18T10:19:20.498Z,45.9
2017-09-18T10:20:24.040Z,46.3
2017-09-18T10:21:26.691Z,48.5
2017-09-18T10:22:33.025Z,50.2
2017-09-18T10:23:35.219Z,50.2
2017-09-18T10:24:40.304Z,48.0
2017-09-18T10:25:42.337Z,48.8
2017-09-18T10:26:44.454Z,49.8
2017-09-18T10:27:47.700Z,50.4
2017-09-18T10:28:50.129Z,51.0
2017-09-18T10:29:51.992Z,51.3
2017-09-18T10:30:53.698Z,51.9
2017-09-18T10:31:55.339Z,51.2
2017-09-18T10:32:57.128Z,50.0
2017-09-18T10:33:58.902Z,50.9
2017-09-18T10:35:00.745Z,52.1
2017-09-18T10:36:02.541Z,53.0
2017-09-18T10:37:04.481Z,55.0
2017-09-18T10:38:06.181Z,55.0
2017-09-18T10:39:07.961Z,55.4
2017-09-18T10:40:13.795Z,54.0
2017-09-18T10:41:15.526Z,51.0
2017-09-18T10:42:21.739Z,46.5
2017-09-18T10:43:23.512Z,42.8
2017-09-18T10:44:26.598Z,40.8
2017-09-18T10:45:28.447Z,39.6
2017-09-18T10:46:30.310Z,38.1
2017-09-18T10:47:32.064Z,39.6
2017-09-18T10:48:33.857Z,41.7
2017-09-18T10:49:35.606Z,43.4
2017-09-18T10:50:37.223Z,46.5
2017-09-18T10:51:38.836Z,46.6
2017-09-18T10:52:40.567Z,45.6
2017-09-18T10:53:42.534Z,48.3
2017-09-18T10:54:44.537Z,47.8
2017-09-18T10:55:46.428Z,48.2
2017-09-18T10:56:48.033Z,49.0
2017-09-18T10:57:49.776Z,50.6
2017-09-18T10:58:51.501Z,50.9
2017-09-18T10:59:53.154Z,51.8
2017-09-18T11:00:55.045Z,53.2
2017-09-18T11:01:56.883Z,54.2
2017-09-18T11:02:58.896Z,55.8
2017-09-18T11:04:00.654Z,56.2
2017-09-18T11:05:02.503Z,56.9
2017-09-18T11:06:04.396Z,56.8
2017-09-18T11:07:06.101Z,57.3
2017-09-18T11:08:07.914Z,58.3
2017-09-18T11:09:10.626Z,57.2
2017-09-18T11:10:12.347Z,57.1
2017-09-18T11:11:14.377Z,57.4
2017-09-18T11:12:16.396Z,58.8
2017-09-18T11:13:18.688Z,59.3
2017-09-18T11:14:20.788Z,60.5
2017-09-18T11:15:23.070Z,61.6
2017-09-18T11:16:25.149Z,64.4
2017-09-18T11:17:27.589Z,67.4
2017-09-18T11:18:29.920Z,70.9
2017-09-18T11:19:32.256Z,74.8
2017-09-18T11:20:34.596Z,77.8
2017-09-18T11:21:36.109Z,80.9
2017-09-18T11:22:37.916Z,83.3
2017-09-18T11:23:39.810Z,87.3
2017-09-18T11:24:41.596Z,88.5
2017-09-18T11:25:43.584Z,89.2
2017-09-18T11:26:45.566Z,88.3
2017-09-18T11:27:47.621Z,87.6
2017-09-18T11:28:49.611Z,85.9
2017-09-18T11:29:51.350Z,84.9
2017-09-18T11:30:53.305Z,84.2
2017-09-18T11:31:55.023Z,84.5
2017-09-18T11:32:58.395Z,85.9
2017-09-18T11:34:00.243Z,86.1
2017-09-18T11:35:06.765Z,86.5
2017-09-18T11:36:08.686Z,86.5
2017-09-18T11:37:12.660Z,86.9
2017-09-18T11:38:15.082Z,87.0
2017-09-18T11:39:16.932Z,87.0
2017-09-18T11:40:18.679Z,86.3
2017-09-18T11:41:23.582Z,85.6
2017-09-18T11:42:25.455Z,85.6
2017-09-18T11:43:27.350Z,87.3
2017-09-18T11:44:29.612Z,84.4
2017-09-18T11:45:32.877Z,84.9
2017-09-18T11:46:36.031Z,86.4
2017-09-18T11:47:38.464Z,88.8
2017-09-18T11:48:41.463Z,86.3
2017-09-18T11:49:43.122Z,88.5
2017-09-18T11:50:44.814Z,89.9
2017-09-18T11:51:47.028Z,90.4
2017-09-18T11:52:48.963Z,90.4
2017-09-18T11:53:51.125Z,91.9
2017-09-18T11:54:52.662Z,92.1
2017-09-18T11:55:54.362Z,91.5
2017-09-18T11:56:56.169Z,90.9
2017-09-18T11:57:57.916Z,92.1
2017-09-18T11:58:59.529Z,92.5
2017-09-18T12:00:03.354Z,92.2
2017-09-18T12:01:07.158Z,90.9
2017-09-18T12:02:08.962Z,90.9
2017-09-18T12:03:10.553Z,88.3
2017-09-18T12:04:12.226Z,89.6
2017-09-18T12:05:13.883Z,90.4
2017-09-18T12:06:15.617Z,89.8
2017-09-18T12:07:18.881Z,88.6
2017-09-18T12:08:20.486Z,88.0
2017-09-18T12:09:22.361Z,87.2
2017-09-18T12:10:24.199Z,87.1
2017-09-18T12:11:26.135Z,86.3
2017-09-18T12:12:27.973Z,87.3
2017-09-18T12:13:30.082Z,85.6
2017-09-18T12:14:33.404Z,84.8
2017-09-18T12:15:38.368Z,83.4
2017-09-18T12:16:42.180Z,84.0
2017-09-18T12:17:44.871Z,83.7
2017-09-18T12:18:46.710Z,82.5
2017-09-18T12:19:50.267Z,82.5
2017-09-18T12:20:52.035Z,81.7
2017-09-18T12:21:53.859Z,77.3
2017-09-18T12:22:55.722Z,75.9
2017-09-18T12:23:57.503Z,72.2
2017-09-18T12:24:59.431Z,69.1
2017-09-18T12:26:01.303Z,68.8
2017-09-18T12:27:03.163Z,64.9
2017-09-18T12:28:04.977Z,68.0
2017-09-18T12:29:06.733Z,71.5
2017-09-18T12:30:08.399Z,65.0
2017-09-18T12:31:10.119Z,65.8
2017-09-18T12:32:12.223Z,66.0
2017-09-18T12:33:14.054Z,67.3
2017-09-18T12:34:17.089Z,69.6
2017-09-18T12:35:18.664Z,69.7
2017-09-18T12:36:20.390Z,68.7
2017-09-18T12:37:23.249Z,70.8
2017-09-18T12:38:24.916Z,72.1
2017-09-18T12:39:26.752Z,73.5
2017-09-18T12:40:28.437Z,74.6
2017-09-18T12:41:30.192Z,74.3
2017-09-18T12:42:31.923Z,76.8
2017-09-18T12:43:33.528Z,74.9
2017-09-18T12:44:35.244Z,72.8
2017-09-18T12:45:36.861Z,71.7
2017-09-18T12:46:38.588Z,70.9
2017-09-18T12:47:40.277Z,70.8
2017-09-18T12:48:41.919Z,70.7
2017-09-18T12:49:43.616Z,72.8
2017-09-18T12:50:45.239Z,73.9
2017-09-18T12:51:47.094Z,73.7
2017-09-18T12:52:48.682Z,74.3
2017-09-18T12:53:50.337Z,75.7
2017-09-18T12:54:52.202Z,76.7
2017-09-18T12:55:53.836Z,75.9
2017-09-18T12:56:55.470Z,77.2
2017-09-18T12:57:57.088Z,73.6
2017-09-18T12:58:58.974Z,73.4
2017-09-18T13:00:00.781Z,70.4
2017-09-18T13:01:03.708Z,69.9
2017-09-18T13:02:05.717Z,67.0
2017-09-18T13:03:07.846Z,58.9
2017-09-18T13:04:09.830Z,55.2
2017-09-18T13:05:11.417Z,53.0
2017-09-18T13:06:12.960Z,50.6
2017-09-18T13:07:14.658Z,46.7
2017-09-18T13:08:16.181Z,44.6
2017-09-18T13:09:17.992Z,43.3
2017-09-18T13:10:19.541Z,40.8
2017-09-18T13:11:21.163Z,41.0
2017-09-18T13:12:22.728Z,38.6
2017-09-18T13:13:24.453Z,37.9
2017-09-18T13:14:26.008Z,33.7
2017-09-18T13:15:27.564Z,32.6
2017-09-18T13:16:29.203Z,33.4
2017-09-18T13:17:30.779Z,32.6
2017-09-18T13:18:32.301Z,36.5
2017-09-18T13:19:33.989Z,43.0
2017-09-18T13:20:35.538Z,46.5
2017-09-18T13:21:37.111Z,49.3
2017-09-18T13:22:38.945Z,50.8
2017-09-18T13:23:40.396Z,53.1
2017-09-18T13:24:41.951Z,53.9
2017-09-18T13:25:43.492Z,54.1
2017-09-18T13:26:45.155Z,54.5
2017-09-18T13:27:48.084Z,53.9
2017-09-18T13:28:49.680Z,55.7
2017-09-18T13:29:51.326Z,59.5
2017-09-18T13:30:52.955Z,61.6
2017-09-18T13:31:54.849Z,62.0